createdAt,value
2023-04-13T00:00:42.005Z,99155.03
2023-04-13T00:03:12.200Z,99149.84
2023-04-13T00:05:39.493Z,99143.84
2023-04-13T00:08:07.031Z,99139.88
2023-04-13T00:10:36.295Z,99138.25
2023-04-13T00:13:05.469Z,99135.47
2023-04-13T00:15:34.669Z,99132.25
2023-04-13T00:18:01.845Z,99134.22
2023-04-13T00:20:28.761Z,99123.88
2023-04-13T00:22:55.407Z,99124.25
2023-04-13T00:25:22.301Z,99111.91
2023-04-13T00:27:53.129Z,99113.47
2023-04-13T00:30:21.213Z,99112.69
2023-04-13T00:32:48.767Z,99107.13
2023-04-13T00:35:24.785Z,99108.31
2023-04-13T00:37:52.784Z,99103.94
2023-04-13T00:40:19.329Z,99096.00
2023-04-13T00:42:47.451Z,99087.66
2023-04-13T00:45:14.521Z,99084.50
2023-04-13T00:47:43.505Z,99083.28
2023-04-13T00:50:10.428Z,99093.63
2023-04-13T00:52:40.421Z,99090.09
2023-04-13T00:55:07.700Z,99091.69
2023-04-13T00:57:35.250Z,99084.13
2023-04-13T01:00:06.769Z,99084.56
2023-04-13T01:02:34.245Z,99079.38
2023-04-13T01:05:02.327Z,99086.19
2023-04-13T01:07:44.709Z,99083.38
2023-04-13T01:10:44.937Z,99086.56
2023-04-13T01:13:20.680Z,99090.22
2023-04-13T01:16:01.529Z,99085.03
2023-04-13T01:18:30.424Z,99085.47
2023-04-13T01:20:56.870Z,99086.69
2023-04-13T01:23:32.159Z,99070.38
2023-04-13T01:26:04.096Z,99072.78
2023-04-13T01:28:31.002Z,99069.63
2023-04-13T01:30:57.713Z,99072.41
2023-04-13T01:33:25.401Z,99077.19
2023-04-13T01:35:52.180Z,99072.78
2023-04-13T01:38:24.530Z,99059.25
2023-04-13T01:40:51.775Z,99063.63
2023-04-13T01:43:20.596Z,99062.44
2023-04-13T01:45:53.513Z,99060.06
2023-04-13T01:48:28.127Z,99072.00
2023-04-13T01:51:00.671Z,99065.63
2023-04-13T01:53:46.455Z,99069.22
2023-04-13T01:56:15.683Z,99062.09
2023-04-13T01:58:43.004Z,99063.66
2023-04-13T02:01:09.624Z,99047.34
2023-04-13T02:03:36.350Z,99056.09
2023-04-13T02:06:02.932Z,99069.22
2023-04-13T02:08:32.515Z,99052.91
2023-04-13T02:11:00.941Z,99060.88
2023-04-13T02:13:27.391Z,99051.72
2023-04-13T02:15:53.947Z,99057.28
2023-04-13T02:18:20.577Z,99054.50
2023-04-13T02:20:47.225Z,99054.09
2023-04-13T02:23:15.005Z,99051.31
2023-04-13T02:25:44.756Z,99051.31
2023-04-13T02:28:12.424Z,99048.16
2023-04-13T02:30:39.067Z,99049.31
2023-04-13T02:33:07.048Z,99050.13
2023-04-13T02:35:35.505Z,99052.09
2023-04-13T02:38:01.895Z,99048.16
2023-04-13T02:40:28.698Z,99041.00
2023-04-13T02:42:57.417Z,99051.34
2023-04-13T02:45:23.886Z,99044.53
2023-04-13T02:47:50.575Z,99037.38
2023-04-13T02:50:18.586Z,99030.63
2023-04-13T02:52:45.091Z,99038.97
2023-04-13T02:55:11.674Z,99029.44
2023-04-13T02:57:38.318Z,99035.00
2023-04-13T03:00:12.293Z,99036.19
2023-04-13T03:02:42.315Z,99037.78
2023-04-13T03:05:09.431Z,99024.25
2023-04-13T03:07:36.385Z,99023.88
2023-04-13T03:10:05.714Z,99033.81
2023-04-13T03:12:32.709Z,99041.00
2023-04-13T03:15:10.935Z,99038.63
2023-04-13T03:17:41.266Z,99033.06
2023-04-13T03:20:16.706Z,99032.69
2023-04-13T03:22:44.966Z,99034.66
2023-04-13T03:25:11.600Z,99045.44
2023-04-13T03:27:37.989Z,99053.00
2023-04-13T03:30:04.748Z,99047.84
2023-04-13T03:32:32.023Z,99058.16
2023-04-13T03:34:58.899Z,99054.22
2023-04-13T03:37:30.020Z,99059.38
2023-04-13T03:39:56.660Z,99055.81
2023-04-13T03:42:23.443Z,99052.25
2023-04-13T03:44:49.844Z,99049.84
2023-04-13T03:47:16.806Z,99063.38
2023-04-13T03:49:43.156Z,99057.81
2023-04-13T03:52:09.622Z,99058.59
2023-04-13T03:54:36.088Z,99063.00
2023-04-13T03:57:04.471Z,99061.03
2023-04-13T03:59:30.994Z,99067.41
2023-04-13T04:01:57.840Z,99057.81
2023-04-13T04:04:24.516Z,99071.75
2023-04-13T04:06:51.346Z,99067.38
2023-04-13T04:09:18.478Z,99065.78
2023-04-13T04:11:45.134Z,99072.94
2023-04-13T04:14:11.799Z,99074.53
2023-04-13T04:16:38.246Z,99077.31
2023-04-13T04:19:04.612Z,99066.19
2023-04-13T04:21:34.439Z,99086.06
2023-04-13T04:24:06.413Z,99074.13
2023-04-13T04:26:32.915Z,99088.03
2023-04-13T04:29:02.938Z,99084.47
2023-04-13T04:31:36.870Z,99084.88
2023-04-13T04:34:03.882Z,99077.31
2023-04-13T04:36:30.476Z,99088.44
2023-04-13T04:39:02.572Z,99106.75
2023-04-13T04:41:30.912Z,99106.34
2023-04-13T04:43:57.812Z,99104.75
2023-04-13T04:46:29.544Z,99106.78
2023-04-13T04:49:00.453Z,99110.38
2023-04-13T04:51:27.595Z,99134.25
2023-04-13T04:53:54.186Z,99126.28
2023-04-13T04:56:21.779Z,99125.50
2023-04-13T04:58:48.273Z,99137.06
2023-04-13T05:01:14.867Z,99142.63
2023-04-13T05:03:41.390Z,99138.25
2023-04-13T05:06:08.575Z,99156.94
2023-04-13T05:08:35.157Z,99161.72
2023-04-13T05:11:01.587Z,99155.34
2023-04-13T05:13:28.069Z,99160.13
2023-04-13T05:15:54.410Z,99174.84
2023-04-13T05:18:20.813Z,99176.84
2023-04-13T05:20:47.255Z,99174.47
2023-04-13T05:23:13.903Z,99189.59
2023-04-13T05:25:40.671Z,99181.59
2023-04-13T05:28:07.220Z,99193.91
2023-04-13T05:30:34.086Z,99201.84
2023-04-13T05:33:05.558Z,99191.47
2023-04-13T05:35:32.115Z,99199.84
2023-04-13T05:38:00.717Z,99207.00
2023-04-13T05:40:27.823Z,99210.59
2023-04-13T05:42:54.182Z,99203.41
2023-04-13T05:45:21.498Z,99201.03
2023-04-13T05:47:48.090Z,99226.91
2023-04-13T05:50:14.549Z,99222.53
2023-04-13T05:52:40.854Z,99223.31
2023-04-13T05:55:07.544Z,99220.97
2023-04-13T05:57:34.253Z,99220.16
2023-04-13T06:00:00.723Z,99227.75
2023-04-13T06:02:27.352Z,99241.34
2023-04-13T06:04:55.177Z,99242.97
2023-04-13T06:07:22.618Z,99244.56
2023-04-13T06:09:49.752Z,99247.78
2023-04-13T06:12:18.153Z,99261.75
2023-04-13T06:14:44.911Z,99268.94
2023-04-13T06:17:11.352Z,99263.75
2023-04-13T06:19:38.004Z,99274.94
2023-04-13T06:22:04.413Z,99272.56
2023-04-13T06:24:33.718Z,99276.56
2023-04-13T06:27:00.112Z,99279.75
2023-04-13T06:29:26.567Z,99294.94
2023-04-13T06:31:52.906Z,99291.75
2023-04-13T06:34:19.333Z,99295.75
2023-04-13T06:36:45.682Z,99304.53
2023-04-13T06:39:12.032Z,99301.41
2023-04-13T06:41:38.342Z,99298.63
2023-04-13T06:44:04.897Z,99310.63
2023-04-13T06:46:31.337Z,99313.03
2023-04-13T06:48:58.105Z,99309.09
2023-04-13T06:51:24.569Z,99307.50
2023-04-13T06:53:52.448Z,99315.94
2023-04-13T06:56:18.829Z,99314.38
2023-04-13T06:58:45.471Z,99324.75
2023-04-13T07:01:12.302Z,99327.59
2023-04-13T07:03:38.974Z,99335.97
2023-04-13T07:06:06.541Z,99337.19
2023-04-13T07:08:34.275Z,99346.81
2023-04-13T07:11:02.280Z,99354.38
2023-04-13T07:13:28.980Z,99356.00
2023-04-13T07:15:55.627Z,99361.22
2023-04-13T07:18:22.012Z,99371.19
2023-04-13T07:20:48.375Z,99373.19
2023-04-13T07:23:15.021Z,99383.97
2023-04-13T07:25:41.644Z,99389.16
2023-04-13T07:28:08.149Z,99383.97
2023-04-13T07:30:34.799Z,99392.78
2023-04-13T07:33:01.709Z,99397.94
2023-04-13T07:35:28.293Z,99400.38
2023-04-13T07:37:55.305Z,99395.19
2023-04-13T07:40:21.646Z,99406.34
2023-04-13T07:42:51.409Z,99405.13
2023-04-13T07:45:19.918Z,99405.56
2023-04-13T07:47:46.684Z,99420.72
2023-04-13T07:50:13.380Z,99414.75
2023-04-13T07:52:39.751Z,99418.38
2023-04-13T07:55:07.508Z,99419.56
2023-04-13T07:57:33.854Z,99427.97
2023-04-13T08:00:00.286Z,99434.00
2023-04-13T08:02:26.721Z,99422.81
2023-04-13T08:04:53.377Z,99429.28
2023-04-13T08:07:20.948Z,99428.50
2023-04-13T08:09:49.526Z,99425.31
2023-04-13T08:12:17.914Z,99426.16
2023-04-13T08:14:44.221Z,99429.75
2023-04-13T08:17:11.352Z,99428.56
2023-04-13T08:19:37.942Z,99432.97
2023-04-13T08:22:05.236Z,99447.38
2023-04-13T08:24:32.186Z,99441.78
2023-04-13T08:26:58.955Z,99448.97
2023-04-13T08:29:26.302Z,99442.59
2023-04-13T08:31:53.083Z,99454.97
2023-04-13T08:34:19.704Z,99453.75
2023-04-13T08:36:46.185Z,99454.97
2023-04-13T08:39:13.275Z,99449.75
2023-04-13T08:41:43.963Z,99457.75
2023-04-13T08:44:12.389Z,99472.97
2023-04-13T08:46:45.120Z,99472.53
2023-04-13T08:49:12.681Z,99477.72
2023-04-13T08:51:42.169Z,99478.97
2023-04-13T08:54:08.948Z,99475.75
2023-04-13T08:56:45.323Z,99479.38
2023-04-13T08:59:15.297Z,99475.38
2023-04-13T09:01:44.340Z,99480.59
2023-04-13T09:04:13.741Z,99486.97
2023-04-13T09:06:44.884Z,99484.16
2023-04-13T09:09:15.809Z,99484.53
2023-04-13T09:11:43.482Z,99495.34
2023-04-13T09:14:10.194Z,99499.72
2023-04-13T09:16:43.618Z,99495.31
2023-04-13T09:19:11.157Z,99511.75
2023-04-13T09:21:43.105Z,99516.13
2023-04-13T09:24:10.822Z,99514.53
2023-04-13T09:26:41.810Z,99520.91
2023-04-13T09:29:11.651Z,99530.50
2023-04-13T09:31:39.819Z,99533.72
2023-04-13T09:34:08.179Z,99544.09
2023-04-13T09:36:39.444Z,99539.28
2023-04-13T09:39:13.661Z,99543.69
2023-04-13T09:41:40.829Z,99546.47
2023-04-13T09:44:20.769Z,99554.84
2023-04-13T09:47:03.954Z,99553.25
2023-04-13T09:49:40.822Z,99559.66
2023-04-13T09:52:18.062Z,99563.25
2023-04-13T09:54:49.650Z,99560.84
2023-04-13T09:57:27.138Z,99567.63
2023-04-13T09:59:54.882Z,99567.25
2023-04-13T10:02:21.898Z,99576.06
2023-04-13T10:04:48.402Z,99564.47
2023-04-13T10:07:14.798Z,99576.47
2023-04-13T10:09:44.608Z,99575.66
2023-04-13T10:12:12.289Z,99574.47
2023-04-13T10:14:41.040Z,99582.06
2023-04-13T10:17:44.370Z,99580.03
2023-04-13T10:20:13.610Z,99579.25
2023-04-13T10:22:44.032Z,99588.44
2023-04-13T10:25:31.527Z,99587.25
2023-04-13T10:28:00.806Z,99584.50
2023-04-13T10:30:28.092Z,99593.31
2023-04-13T10:33:09.589Z,99600.56
2023-04-13T10:35:42.914Z,99601.78
2023-04-13T10:38:10.714Z,99596.19
2023-04-13T10:40:47.640Z,99603.38
2023-04-13T10:43:30.975Z,99595.34
2023-04-13T10:46:13.414Z,99601.38
2023-04-13T10:48:43.158Z,99609.78
2023-04-13T10:51:09.626Z,99598.16
2023-04-13T10:53:37.003Z,99613.34
2023-04-13T10:56:05.385Z,99608.56
2023-04-13T10:58:33.126Z,99607.38
2023-04-13T11:01:00.075Z,99604.16
2023-04-13T11:03:28.423Z,99613.78
2023-04-13T11:05:59.665Z,99617.78
2023-04-13T11:08:27.801Z,99621.75
2023-04-13T11:10:55.563Z,99623.38
2023-04-13T11:13:25.165Z,99636.59
2023-04-13T11:15:51.953Z,99637.81
2023-04-13T11:18:28.319Z,99634.59
2023-04-13T11:20:55.382Z,99638.19
2023-04-13T11:23:24.123Z,99643.81
2023-04-13T11:25:56.106Z,99639.78
2023-04-13T11:28:23.579Z,99656.19
2023-04-13T11:30:57.012Z,99658.19
2023-04-13T11:33:27.668Z,99660.63
2023-04-13T11:35:58.912Z,99662.22
2023-04-13T11:38:25.768Z,99664.59
2023-04-13T11:40:58.887Z,99669.41
2023-04-13T11:43:34.548Z,99671.41
2023-04-13T11:46:01.178Z,99666.22
2023-04-13T11:48:27.705Z,99663.81
2023-04-13T11:50:54.975Z,99667.00
2023-04-13T11:53:21.960Z,99658.19
2023-04-13T11:55:53.406Z,99663.81
2023-04-13T11:58:21.281Z,99664.63
2023-04-13T12:00:49.270Z,99665.44
2023-04-13T12:03:34.509Z,99659.78
2023-04-13T12:06:05.866Z,99668.63
2023-04-13T12:08:33.890Z,99668.19
2023-04-13T12:13:48.453Z,99677.41
2023-04-13T12:19:06.975Z,99684.63
2023-04-13T12:21:35.200Z,99686.59
2023-04-13T12:24:05.459Z,99677.38
2023-04-13T12:29:05.250Z,99690.19
2023-04-13T12:31:39.279Z,99691.41
2023-04-13T12:34:07.898Z,99688.19
2023-04-13T12:36:36.701Z,99699.41
2023-04-13T12:39:04.757Z,99701.38
2023-04-13T12:41:32.360Z,99695.78
2023-04-13T12:43:59.252Z,99705.00
2023-04-13T12:46:26.592Z,99710.22
2023-04-13T12:48:53.383Z,99712.59
2023-04-13T12:51:19.989Z,99718.22
2023-04-13T12:53:46.420Z,99723.81
2023-04-13T12:56:12.804Z,99719.84
2023-04-13T12:58:39.239Z,99721.03
2023-04-13T13:01:05.730Z,99734.25
2023-04-13T13:03:32.255Z,99733.84
2023-04-13T13:05:58.671Z,99736.25
2023-04-13T13:08:26.166Z,99738.66
2023-04-13T13:10:53.225Z,99738.66
2023-04-13T13:13:19.668Z,99742.66
2023-04-13T13:15:46.440Z,99741.84
2023-04-13T13:18:13.767Z,99743.06
2023-04-13T13:20:41.616Z,99734.22
2023-04-13T13:23:12.424Z,99737.44
2023-04-13T13:25:52.438Z,99751.44
2023-04-13T13:28:29.747Z,99752.66
2023-04-13T13:30:56.130Z,99748.25
2023-04-13T13:33:23.391Z,99749.47
2023-04-13T13:35:50.000Z,99755.06
2023-04-13T13:38:16.619Z,99750.66
2023-04-13T13:40:43.161Z,99761.06
2023-04-13T13:43:13.019Z,99765.88
2023-04-13T13:45:39.709Z,99762.28
2023-04-13T13:48:06.689Z,99762.66
2023-04-13T13:50:33.063Z,99768.69
2023-04-13T13:53:04.342Z,99763.88
2023-04-13T13:55:31.906Z,99757.84
2023-04-13T13:57:58.629Z,99766.28
2023-04-13T14:00:25.647Z,99763.88
2023-04-13T14:02:53.220Z,99763.06
2023-04-13T14:05:22.021Z,99774.28
2023-04-13T14:07:48.788Z,99760.63
2023-04-13T14:10:15.513Z,99767.06
2023-04-13T14:12:44.474Z,99768.66
2023-04-13T14:15:12.322Z,99776.66
2023-04-13T14:17:39.770Z,99790.69
2023-04-13T14:20:12.744Z,99783.44
2023-04-13T14:22:40.648Z,99781.03
2023-04-13T14:25:09.225Z,99779.41
2023-04-13T14:27:36.179Z,99783.44
2023-04-13T14:30:03.056Z,99778.19
2023-04-13T14:32:29.554Z,99781.00
2023-04-13T14:35:00.286Z,99783.00
2023-04-13T14:37:27.787Z,99772.13
2023-04-13T14:39:55.289Z,99765.28
2023-04-13T14:42:24.372Z,99768.88
2023-04-13T14:44:54.242Z,99770.44
2023-04-13T14:47:20.894Z,99770.84
2023-04-13T14:49:47.825Z,99770.03
2023-04-13T14:52:15.174Z,99769.59
2023-04-13T14:54:41.810Z,99769.56
2023-04-13T14:57:09.674Z,99769.97
2023-04-13T14:59:36.010Z,99776.75
2023-04-13T15:02:03.902Z,99781.59
2023-04-13T15:04:31.378Z,99779.19
2023-04-13T15:06:58.819Z,99783.59
2023-04-13T15:09:25.711Z,99779.56
2023-04-13T15:11:55.999Z,99780.38
2023-04-13T15:14:22.701Z,99784.81
2023-04-13T15:16:49.245Z,99792.41
2023-04-13T15:19:15.662Z,99790.38
2023-04-13T15:21:42.259Z,99797.22
2023-04-13T15:24:11.373Z,99804.44
2023-04-13T15:26:42.981Z,99806.06
2023-04-13T15:29:09.583Z,99802.84
2023-04-13T15:31:37.482Z,99805.25
2023-04-13T15:34:09.067Z,99808.88
2023-04-13T15:36:36.385Z,99814.50
2023-04-13T15:39:04.381Z,99812.88
2023-04-13T15:41:31.516Z,99813.66
2023-04-13T15:44:01.412Z,99813.66
2023-04-13T15:46:27.972Z,99823.31
2023-04-13T15:48:56.130Z,99826.94
2023-04-13T15:51:23.315Z,99832.97
2023-04-13T15:53:49.768Z,99820.13
2023-04-13T15:56:16.682Z,99841.00
2023-04-13T15:58:43.163Z,99842.63
2023-04-13T16:01:11.263Z,99841.00
2023-04-13T16:03:38.323Z,99841.78
2023-04-13T16:06:05.095Z,99843.00
2023-04-13T16:08:31.712Z,99848.63
2023-04-13T16:10:58.303Z,99850.63
2023-04-13T16:13:34.660Z,99842.19
2023-04-13T16:16:08.011Z,99845.81
2023-04-13T16:18:36.754Z,99849.03
2023-04-13T16:21:03.973Z,99853.44
2023-04-13T16:23:37.319Z,99861.88
2023-04-13T16:26:04.021Z,99875.53
2023-04-13T16:28:32.394Z,99864.69
2023-04-13T16:30:59.283Z,99869.09
2023-04-13T16:33:26.203Z,99876.72
2023-04-13T16:35:52.641Z,99884.38
2023-04-13T16:38:19.045Z,99884.00
2023-04-13T16:40:45.848Z,99885.19
2023-04-13T16:43:12.651Z,99888.41
2023-04-13T16:45:39.039Z,99894.03
2023-04-13T16:48:05.940Z,99896.03
2023-04-13T16:50:32.771Z,99901.66
2023-04-13T16:53:02.276Z,99904.09
2023-04-13T16:55:28.786Z,99899.25
2023-04-13T16:57:58.031Z,99905.28
2023-04-13T17:00:24.797Z,99909.31
2023-04-13T17:02:51.427Z,99904.09
2023-04-13T17:05:19.537Z,99902.50
2023-04-13T17:07:48.017Z,99908.50
2023-04-13T17:10:14.606Z,99913.34
2023-04-13T17:12:42.977Z,99918.94
2023-04-13T17:15:10.043Z,99921.38
2023-04-13T17:17:38.177Z,99924.59
2023-04-13T17:20:06.720Z,99926.59
2023-04-13T17:22:33.604Z,99927.41
2023-04-13T17:25:00.902Z,99931.41
2023-04-13T17:27:27.581Z,99940.63
2023-04-13T17:29:53.983Z,99941.44
2023-04-13T17:32:21.835Z,99939.84
2023-04-13T17:34:49.386Z,99932.63
2023-04-13T17:37:15.957Z,99940.66
2023-04-13T17:39:47.281Z,99944.66
2023-04-13T17:42:14.685Z,99947.88
2023-04-13T17:44:41.720Z,99961.16
2023-04-13T17:47:09.215Z,99956.75
2023-04-13T17:49:36.854Z,99957.91
2023-04-13T17:52:03.906Z,99964.38
2023-04-13T17:54:30.332Z,99957.53
2023-04-13T17:56:56.774Z,99967.59
2023-04-13T17:59:23.377Z,99970.00
2023-04-13T18:01:52.172Z,99968.00
2023-04-13T18:04:19.071Z,99968.81
2023-04-13T18:06:46.048Z,99975.63
2023-04-13T18:09:12.737Z,99983.66
2023-04-13T18:11:39.139Z,99982.88
2023-04-13T18:14:05.879Z,99989.69
2023-04-13T18:16:32.567Z,99998.09
2023-04-13T18:18:59.051Z,100003.72
2023-04-13T18:21:25.935Z,100016.16
2023-04-13T18:23:53.997Z,100005.31
2023-04-13T18:26:21.907Z,100012.09
2023-04-13T18:28:48.421Z,100025.75
2023-04-13T18:31:14.859Z,100031.78
2023-04-13T18:33:44.574Z,100031.75
2023-04-13T18:36:18.742Z,100043.38
2023-04-13T18:38:45.943Z,100044.19
2023-04-13T18:41:12.992Z,100044.94
2023-04-13T18:43:39.631Z,100049.78
2023-04-13T18:46:08.839Z,100061.75
2023-04-13T18:48:35.975Z,100058.94
2023-04-13T18:51:03.385Z,100064.13
2023-04-13T18:53:30.523Z,100062.88
2023-04-13T18:55:59.118Z,100066.47
2023-04-13T18:58:27.342Z,100060.06
2023-04-13T19:00:53.937Z,100062.84
2023-04-13T19:03:20.620Z,100064.00
2023-04-13T19:05:47.691Z,100076.38
2023-04-13T19:08:15.266Z,100072.69
2023-04-13T19:10:42.238Z,100074.66
2023-04-13T19:13:09.042Z,100072.59
2023-04-13T19:15:35.863Z,100073.78
2023-04-13T19:18:04.001Z,100074.91
2023-04-13T19:20:30.433Z,100077.28
2023-04-13T19:22:56.842Z,100073.25
2023-04-13T19:25:23.440Z,100077.56
2023-04-13T19:27:52.847Z,100085.13
2023-04-13T19:30:19.786Z,100087.88
2023-04-13T19:32:48.314Z,100090.63
2023-04-13T19:35:14.871Z,100085.38
2023-04-13T19:37:42.027Z,100094.53
2023-04-13T19:40:15.417Z,100098.09
2023-04-13T19:42:43.379Z,100095.59
2023-04-13T19:45:12.058Z,100099.47
2023-04-13T19:47:43.023Z,100106.63
2023-04-13T19:50:12.517Z,100100.94
2023-04-13T19:52:39.882Z,100110.84
2023-04-13T19:55:08.429Z,100109.59
2023-04-13T19:57:36.576Z,100109.94
2023-04-13T20:00:07.206Z,100107.91
2023-04-13T20:02:33.667Z,100106.22
2023-04-13T20:05:00.412Z,100104.50
2023-04-13T20:07:27.036Z,100112.00
2023-04-13T20:09:54.448Z,100103.53
2023-04-13T20:12:22.051Z,100105.84
2023-04-13T20:14:49.376Z,100112.16
2023-04-13T20:17:17.077Z,100112.47
2023-04-13T20:19:43.683Z,100117.19
2023-04-13T20:22:10.404Z,100112.34
2023-04-13T20:24:36.756Z,100111.47
2023-04-13T20:27:03.189Z,100115.41
2023-04-13T20:29:29.835Z,100117.28
2023-04-13T20:31:56.263Z,100114.81
2023-04-13T20:34:24.399Z,100118.75
2023-04-13T20:36:51.060Z,100117.06
2023-04-13T20:39:25.204Z,100121.84
2023-04-13T20:41:56.063Z,100122.50
2023-04-13T20:44:25.805Z,100135.59
2023-04-13T20:46:55.479Z,100129.97
2023-04-13T20:49:26.833Z,100125.53
2023-04-13T20:51:56.870Z,100126.25
2023-04-13T20:54:26.574Z,100127.38
2023-04-13T20:56:53.184Z,100127.31
2023-04-13T20:59:19.588Z,100129.25
2023-04-13T21:01:46.351Z,100130.00
2023-04-13T21:04:12.825Z,100125.13
2023-04-13T21:06:40.901Z,100120.66
2023-04-13T21:09:08.553Z,100125.41
2023-04-13T21:11:35.365Z,100133.72
2023-04-13T21:14:02.563Z,100128.88
2023-04-13T21:16:29.319Z,100129.97
2023-04-13T21:18:56.094Z,100127.09
2023-04-13T21:21:23.815Z,100138.56
2023-04-13T21:23:51.227Z,100129.34
2023-04-13T21:26:17.699Z,100123.72
2023-04-13T21:28:45.454Z,100130.00
2023-04-13T21:31:11.988Z,100131.94
2023-04-13T21:33:39.458Z,100136.28
2023-04-13T21:38:42.823Z,100147.28
2023-04-13T21:41:20.345Z,100143.94
2023-04-13T21:43:47.381Z,100141.16
2023-04-13T21:46:15.347Z,100134.72
2023-04-13T21:48:42.376Z,100136.25
2023-04-13T21:51:09.602Z,100133.78
2023-04-13T21:53:36.985Z,100132.44
2023-04-13T21:56:04.820Z,100132.38
2023-04-13T21:58:39.629Z,100136.25
2023-04-13T22:01:07.237Z,100132.66
2023-04-13T22:03:42.142Z,100141.31
2023-04-13T22:06:10.582Z,100140.53
2023-04-13T22:08:38.463Z,100137.66
2023-04-13T22:11:05.324Z,100141.97
2023-04-13T22:13:32.124Z,100154.66
2023-04-13T22:15:58.676Z,100161.34
2023-04-13T22:18:26.937Z,100162.84
2023-04-13T22:20:53.513Z,100166.41
2023-04-13T22:23:20.116Z,100170.69
2023-04-13T22:25:59.409Z,100167.81
2023-04-13T22:28:28.866Z,100169.00
2023-04-13T22:30:55.549Z,100172.16
2023-04-13T22:33:22.208Z,100173.34
2023-04-13T22:35:51.903Z,100179.63
2023-04-13T22:38:19.146Z,100180.34
2023-04-13T22:40:45.731Z,100189.06
2023-04-13T22:43:12.113Z,100191.44
2023-04-13T22:45:38.616Z,100186.19
2023-04-13T22:48:05.592Z,100192.50
2023-04-13T22:50:32.295Z,100193.31
2023-04-13T22:52:58.679Z,100196.44
2023-04-13T22:55:25.178Z,100184.50
2023-04-13T22:57:51.501Z,100192.84
2023-04-13T23:00:20.589Z,100202.00
2023-04-13T23:02:50.249Z,100194.81
2023-04-13T23:05:17.467Z,100202.38
2023-04-13T23:07:44.112Z,100198.78
2023-04-13T23:10:10.749Z,100192.41
2023-04-13T23:12:37.407Z,100189.19
2023-04-13T23:15:04.421Z,100193.13
2023-04-13T23:17:31.072Z,100192.31
2023-04-13T23:20:00.268Z,100187.50
2023-04-13T23:22:28.196Z,100189.44
2023-04-13T23:24:54.512Z,100195.38
2023-04-13T23:27:21.163Z,100195.75
2023-04-13T23:29:50.439Z,100205.19
2023-04-13T23:32:18.127Z,100203.59
2023-04-13T23:34:44.500Z,100199.16
2023-04-13T23:37:11.508Z,100203.03
2023-04-13T23:39:37.990Z,100197.00
2023-04-13T23:42:04.729Z,100198.56
2023-04-13T23:44:31.282Z,100202.84
2023-04-13T23:46:57.849Z,100205.19
2023-04-13T23:49:24.268Z,100209.50
2023-04-13T23:51:50.814Z,100200.25
2023-04-13T23:54:17.222Z,100210.94
2023-04-13T23:56:43.877Z,100208.06
2023-04-13T23:59:10.638Z,100212.69
